Nijmegen, Netherlands
Current Conditions -  °F | °C
As of 10:55 AM on Friday 28 Nov 2014 (Local Time) from EHVK Reporting Station
Haze Haze  
Wind Chill: 38°   Ceiling: 10000
Heat Index: 45°   Visibility: 4mi
Dew Point: 41°   Wind: 14mph
Humidity: 87%   Direction: 90°E
Pressure: 29.77"   Gusts: NA
Location:  51.84°N, 5.85°E
Report Text: EHVK 280955Z AUTO 09012KT 7000 BR FEW076 SCT082 OVC100 07/05 Q1008 WHT 09011KT CAVOK
Loading
Personal Weather Stations






























Interactive Weather Map New forecast layout! Learn more

10-Day Weather Forecast

Advertisements
Track Severe Weather on mobile